createdAt,value
2018-04-10T00:00:06.752Z,17.87
2018-04-10T00:01:06.755Z,17.84
2018-04-10T00:02:06.744Z,17.83
2018-04-10T00:03:06.712Z,17.87
2018-04-10T00:04:06.732Z,17.85
2018-04-10T00:05:06.696Z,17.83
2018-04-10T00:06:06.725Z,17.83
2018-04-10T00:07:07.055Z,17.87
2018-04-10T00:08:06.719Z,17.83
2018-04-10T00:09:06.703Z,17.83
2018-04-10T00:10:06.704Z,17.84
2018-04-10T00:11:06.946Z,17.82
2018-04-10T00:12:06.719Z,17.87
2018-04-10T00:13:06.727Z,17.83
2018-04-10T00:14:06.734Z,17.83
2018-04-10T00:15:06.865Z,17.83
2018-04-10T00:16:06.722Z,17.83
2018-04-10T00:17:06.776Z,17.83
2018-04-10T00:18:06.780Z,17.83
2018-04-10T00:19:06.815Z,17.82
2018-04-10T00:20:06.731Z,17.83
2018-04-10T00:21:06.723Z,17.83
2018-04-10T00:22:06.844Z,17.81
2018-04-10T00:23:06.751Z,17.83
2018-04-10T00:24:06.725Z,17.83
2018-04-10T00:25:06.722Z,17.83
2018-04-10T00:26:06.704Z,17.82
2018-04-10T00:27:06.785Z,17.83
2018-04-10T00:28:06.744Z,17.83
2018-04-10T00:29:06.701Z,17.82
2018-04-10T00:30:06.693Z,17.83
2018-04-10T00:31:06.746Z,17.81
2018-04-10T00:32:06.838Z,17.82
2018-04-10T00:33:06.699Z,17.83
2018-04-10T00:34:06.722Z,17.81
2018-04-10T00:35:06.708Z,17.81
2018-04-10T00:36:06.692Z,17.81
2018-04-10T00:37:06.736Z,17.82
2018-04-10T00:38:06.759Z,17.82
2018-04-10T00:39:06.698Z,17.83
2018-04-10T00:40:06.682Z,17.81
2018-04-10T00:41:06.729Z,17.79
2018-04-10T00:42:06.714Z,17.8
2018-04-10T00:43:06.744Z,17.82
2018-04-10T00:44:06.709Z,17.8
2018-04-10T00:45:06.731Z,17.8
2018-04-10T00:46:06.751Z,17.79
2018-04-10T00:47:06.866Z,17.8
2018-04-10T00:48:06.670Z,17.8
2018-04-10T00:49:06.684Z,17.8
2018-04-10T00:50:06.855Z,17.8
2018-04-10T00:51:06.711Z,17.8
2018-04-10T00:52:06.773Z,17.8
2018-04-10T00:53:06.716Z,17.79
2018-04-10T00:54:06.748Z,17.81
2018-04-10T00:55:06.743Z,17.78
2018-04-10T00:56:06.787Z,17.8
2018-04-10T00:57:06.711Z,17.79
2018-04-10T00:58:06.721Z,17.79
2018-04-10T00:59:06.720Z,17.8
2018-04-10T01:00:06.717Z,17.78
2018-04-10T01:01:06.746Z,17.79
2018-04-10T01:02:06.741Z,17.77
2018-04-10T01:03:06.729Z,17.77
2018-04-10T01:04:06.722Z,17.78
2018-04-10T01:05:06.527Z,17.81
2018-04-10T01:06:06.797Z,17.79
2018-04-10T01:07:06.740Z,17.78
2018-04-10T01:08:06.758Z,17.79
2018-04-10T01:09:06.837Z,17.78
2018-04-10T01:10:06.801Z,17.78
2018-04-10T01:11:06.740Z,17.79
2018-04-10T01:12:06.933Z,17.77
2018-04-10T01:13:06.843Z,17.77
2018-04-10T01:14:06.859Z,17.8
2018-04-10T01:15:06.693Z,17.77
2018-04-10T01:16:06.720Z,17.77
2018-04-10T01:17:06.811Z,17.76
2018-04-10T01:18:06.728Z,17.77
2018-04-10T01:19:06.688Z,17.77
2018-04-10T01:20:06.696Z,17.78
2018-04-10T01:21:06.731Z,17.79
2018-04-10T01:22:06.736Z,17.77
2018-04-10T01:23:06.751Z,17.77
2018-04-10T01:24:06.702Z,17.79
2018-04-10T01:25:06.705Z,17.78
2018-04-10T01:26:06.722Z,17.76
2018-04-10T01:27:06.723Z,17.8
2018-04-10T01:28:06.705Z,17.77
2018-04-10T01:29:06.725Z,17.77
2018-04-10T01:30:06.686Z,17.76
2018-04-10T01:31:06.737Z,17.78
2018-04-10T01:32:06.680Z,17.77
2018-04-10T01:33:06.730Z,17.78
2018-04-10T01:34:06.713Z,17.77
2018-04-10T01:35:06.829Z,17.74
2018-04-10T01:36:06.700Z,17.76
2018-04-10T01:37:06.723Z,17.76
2018-04-10T01:38:06.720Z,17.77
2018-04-10T01:39:06.700Z,17.75
2018-04-10T01:40:06.692Z,17.76
2018-04-10T01:41:06.710Z,17.75
2018-04-10T01:42:06.772Z,17.77
2018-04-10T01:43:06.700Z,17.75
2018-04-10T01:44:06.722Z,17.76
2018-04-10T01:45:06.767Z,17.76
2018-04-10T01:46:06.673Z,17.74
2018-04-10T01:47:06.696Z,17.76
2018-04-10T01:48:06.719Z,17.76
2018-04-10T01:49:06.763Z,17.76
2018-04-10T01:50:06.906Z,17.75
2018-04-10T01:51:06.770Z,17.76
2018-04-10T01:52:06.698Z,17.74
2018-04-10T01:53:06.671Z,17.74
2018-04-10T01:54:06.685Z,17.76
2018-04-10T01:55:06.676Z,17.75
2018-04-10T01:56:06.672Z,17.76
2018-04-10T01:57:06.702Z,17.75
2018-04-10T01:58:06.737Z,17.76
2018-04-10T01:59:06.716Z,17.73
2018-04-10T02:00:06.714Z,17.74
2018-04-10T02:01:06.659Z,17.75
2018-04-10T02:02:06.829Z,17.76
2018-04-10T02:03:06.679Z,17.74
2018-04-10T02:04:06.660Z,17.74
2018-04-10T02:05:06.678Z,17.73
2018-04-10T02:06:06.701Z,17.76
2018-04-10T02:07:06.714Z,17.73
2018-04-10T02:08:06.712Z,17.72
2018-04-10T02:09:06.676Z,17.76
2018-04-10T02:10:06.672Z,17.75
2018-04-10T02:11:06.722Z,17.73
2018-04-10T02:12:06.692Z,17.75
2018-04-10T02:13:06.664Z,17.74
2018-04-10T02:14:06.687Z,17.74
2018-04-10T02:15:06.664Z,17.73
2018-04-10T02:16:06.674Z,17.73
2018-04-10T02:17:06.667Z,17.74
2018-04-10T02:18:06.811Z,17.73
2018-04-10T02:19:06.658Z,17.75
2018-04-10T02:20:06.671Z,17.73
2018-04-10T02:21:06.718Z,17.75
2018-04-10T02:22:06.708Z,17.73
2018-04-10T02:23:06.686Z,17.73
2018-04-10T02:24:06.662Z,17.74
2018-04-10T02:25:07.086Z,17.7
2018-04-10T02:26:06.666Z,17.73
2018-04-10T02:27:06.701Z,17.72
2018-04-10T02:28:06.702Z,17.74
2018-04-10T02:29:06.685Z,17.73
2018-04-10T02:30:06.802Z,17.73
2018-04-10T02:31:06.655Z,17.72
2018-04-10T02:32:06.737Z,17.73
2018-04-10T02:33:06.715Z,17.72
2018-04-10T02:34:06.722Z,17.72
2018-04-10T02:35:06.713Z,17.7
2018-04-10T02:36:06.671Z,17.73
2018-04-10T02:37:06.929Z,17.74
2018-04-10T02:38:06.700Z,17.72
2018-04-10T02:39:06.686Z,17.73
2018-04-10T02:40:06.752Z,17.73
2018-04-10T02:41:06.665Z,17.72
2018-04-10T02:42:06.724Z,17.72
2018-04-10T02:43:06.687Z,17.72
2018-04-10T02:44:06.684Z,17.72
2018-04-10T02:45:06.727Z,17.73
2018-04-10T02:46:06.690Z,17.69
2018-04-10T02:47:06.676Z,17.72
2018-04-10T02:48:06.743Z,17.7
2018-04-10T02:49:06.670Z,17.72
2018-04-10T02:50:06.666Z,17.69
2018-04-10T02:51:06.715Z,17.73
2018-04-10T02:52:06.638Z,17.72
2018-04-10T02:53:06.667Z,17.7
2018-04-10T02:54:06.665Z,17.73
2018-04-10T02:55:06.666Z,17.7
2018-04-10T02:56:06.689Z,17.7
2018-04-10T02:57:06.669Z,17.69
2018-04-10T02:58:06.843Z,17.7
2018-04-10T02:59:06.690Z,17.69
2018-04-10T03:00:06.643Z,17.7
2018-04-10T03:01:06.682Z,17.68
2018-04-10T03:02:06.647Z,17.72
2018-04-10T03:03:06.690Z,17.72
2018-04-10T03:04:06.693Z,17.7
2018-04-10T03:05:06.675Z,17.69
2018-04-10T03:06:06.705Z,17.7
2018-04-10T03:07:06.646Z,17.68
2018-04-10T03:08:06.669Z,17.69
2018-04-10T03:09:06.642Z,17.68
2018-04-10T03:10:06.767Z,17.68
2018-04-10T03:11:06.748Z,17.68
2018-04-10T03:12:06.696Z,17.72
2018-04-10T03:13:06.658Z,17.68
2018-04-10T03:14:06.747Z,17.7
2018-04-10T03:15:06.657Z,17.7
2018-04-10T03:16:06.667Z,17.69
2018-04-10T03:17:06.638Z,17.68
2018-04-10T03:18:06.666Z,17.7
2018-04-10T03:19:06.690Z,17.69
2018-04-10T03:20:06.696Z,17.68
2018-04-10T03:21:06.675Z,17.68
2018-04-10T03:22:06.710Z,17.68
2018-04-10T03:23:06.638Z,17.68
2018-04-10T03:24:06.699Z,17.68
2018-04-10T03:25:06.653Z,17.68
2018-04-10T03:26:06.671Z,17.68
2018-04-10T03:27:06.663Z,17.69
2018-04-10T03:28:06.690Z,17.67
2018-04-10T03:29:06.855Z,17.69
2018-04-10T03:30:06.715Z,17.69
2018-04-10T03:31:06.655Z,17.68
2018-04-10T03:32:06.820Z,17.68
2018-04-10T03:33:06.657Z,17.68
2018-04-10T03:34:06.661Z,17.68
2018-04-10T03:35:06.664Z,17.68
2018-04-10T03:36:06.639Z,17.66
2018-04-10T03:37:06.659Z,17.68
2018-04-10T03:38:06.653Z,17.68
2018-04-10T03:39:06.659Z,17.68
2018-04-10T03:40:06.628Z,17.68
2018-04-10T03:41:06.664Z,17.66
2018-04-10T03:42:06.677Z,17.69
2018-04-10T03:43:06.811Z,17.67
2018-04-10T03:44:06.806Z,17.66
2018-04-10T03:45:06.674Z,17.67
2018-04-10T03:46:06.696Z,17.67
2018-04-10T03:47:06.686Z,17.69
2018-04-10T03:48:06.737Z,17.65
2018-04-10T03:49:06.701Z,17.66
2018-04-10T03:50:06.639Z,17.65
2018-04-10T03:51:06.633Z,17.68
2018-04-10T03:52:06.641Z,17.68
2018-04-10T03:53:06.626Z,17.69
2018-04-10T03:54:06.705Z,17.68
2018-04-10T03:55:06.648Z,17.68
2018-04-10T03:56:06.676Z,17.69
2018-04-10T03:57:06.704Z,17.7
2018-04-10T03:58:06.654Z,17.72
2018-04-10T03:59:06.774Z,17.7
2018-04-10T04:00:06.666Z,17.73
2018-04-10T04:01:06.705Z,17.75
2018-04-10T04:02:06.714Z,17.73
2018-04-10T04:03:06.672Z,17.76
2018-04-10T04:04:06.666Z,17.75
2018-04-10T04:05:06.634Z,17.76
2018-04-10T04:06:06.635Z,17.76
2018-04-10T04:07:06.655Z,17.78
2018-04-10T04:08:06.654Z,17.78
2018-04-10T04:09:06.661Z,17.81
2018-04-10T04:10:06.649Z,17.82
2018-04-10T04:11:06.635Z,17.84
2018-04-10T04:12:06.654Z,17.81
2018-04-10T04:13:06.678Z,17.83
2018-04-10T04:14:06.643Z,17.89
2018-04-10T04:15:06.673Z,17.88
2018-04-10T04:16:06.884Z,17.91
2018-04-10T04:17:06.641Z,17.94
2018-04-10T04:18:06.647Z,17.93
2018-04-10T04:19:06.879Z,17.94
2018-04-10T04:20:06.695Z,17.95
2018-04-10T04:21:06.650Z,17.97
2018-04-10T04:22:06.667Z,17.99
2018-04-10T04:23:06.678Z,17.99
2018-04-10T04:24:06.651Z,18.02
2018-04-10T04:25:06.881Z,18.05
2018-04-10T04:26:06.832Z,18.03
2018-04-10T04:27:06.639Z,18.03
2018-04-10T04:28:06.645Z,18.05
2018-04-10T04:29:06.690Z,18.07
2018-04-10T04:30:06.658Z,18.08
2018-04-10T04:31:06.820Z,18.12
2018-04-10T04:32:06.689Z,18.08
2018-04-10T04:33:06.647Z,18.1
2018-04-10T04:34:06.653Z,18.12
2018-04-10T04:35:06.781Z,18.13
2018-04-10T04:36:06.653Z,18.13
2018-04-10T04:37:06.777Z,18.14
2018-04-10T04:38:06.665Z,18.14
2018-04-10T04:39:06.656Z,18.17
2018-04-10T04:40:06.642Z,18.18
2018-04-10T04:41:06.628Z,18.17
2018-04-10T04:42:06.635Z,18.17
2018-04-10T04:43:06.779Z,18.2
2018-04-10T04:44:06.713Z,18.21
2018-04-10T04:45:06.629Z,18.2
2018-04-10T04:46:06.671Z,18.21
2018-04-10T04:47:06.696Z,18.22
2018-04-10T04:48:06.607Z,18.23
2018-04-10T04:49:06.732Z,18.22
2018-04-10T04:50:06.631Z,18.22
2018-04-10T04:51:06.679Z,18.23
2018-04-10T04:52:06.821Z,18.24
2018-04-10T04:53:06.693Z,18.23
2018-04-10T04:54:06.637Z,18.23
2018-04-10T04:55:06.631Z,18.24
2018-04-10T04:56:06.661Z,18.25
2018-04-10T04:57:06.645Z,18.26
2018-04-10T04:58:06.683Z,18.25
2018-04-10T04:59:06.625Z,18.25
2018-04-10T05:00:06.647Z,18.25
2018-04-10T05:01:06.655Z,18.27
2018-04-10T05:02:06.638Z,18.28
2018-04-10T05:03:06.624Z,18.24
2018-04-10T05:04:06.612Z,18.26
2018-04-10T05:05:06.637Z,18.26
2018-04-10T05:06:06.672Z,18.28
2018-04-10T05:07:06.726Z,18.29
2018-04-10T05:08:06.652Z,18.27
2018-04-10T05:09:06.650Z,18.29
2018-04-10T05:10:06.620Z,18.29
2018-04-10T05:11:06.717Z,18.3
2018-04-10T05:12:06.765Z,18.28
2018-04-10T05:13:06.694Z,18.29
2018-04-10T05:14:06.654Z,18.28
2018-04-10T05:15:06.628Z,18.29
2018-04-10T05:16:06.685Z,18.28
2018-04-10T05:17:06.714Z,18.26
2018-04-10T05:18:06.623Z,18.28
2018-04-10T05:19:06.634Z,18.29
2018-04-10T05:20:06.656Z,18.28
2018-04-10T05:21:06.609Z,18.28
2018-04-10T05:22:06.722Z,18.29
2018-04-10T05:23:06.608Z,18.28
2018-04-10T05:24:06.650Z,18.29
2018-04-10T05:25:06.624Z,18.3
2018-04-10T05:26:06.666Z,18.29
2018-04-10T05:27:06.728Z,18.29
2018-04-10T05:28:06.604Z,18.3
2018-04-10T05:29:06.615Z,18.29
2018-04-10T05:30:06.612Z,18.29
2018-04-10T05:31:06.620Z,18.3
2018-04-10T05:32:06.604Z,18.29
2018-04-10T05:33:06.607Z,18.27
2018-04-10T05:34:06.638Z,18.28
2018-04-10T05:35:06.655Z,18.27
2018-04-10T05:36:06.618Z,18.28
2018-04-10T05:37:06.662Z,18.28
2018-04-10T05:38:06.655Z,18.29
2018-04-10T05:39:06.715Z,18.28
2018-04-10T05:40:06.721Z,18.29
2018-04-10T05:41:06.635Z,18.28
2018-04-10T05:42:06.638Z,18.28
2018-04-10T05:43:06.643Z,18.29
2018-04-10T05:44:06.645Z,18.29
2018-04-10T05:45:06.591Z,18.27
2018-04-10T05:46:06.620Z,18.28
2018-04-10T05:47:06.830Z,18.27
2018-04-10T05:48:06.915Z,18.29
2018-04-10T05:49:06.723Z,18.32
2018-04-10T05:50:06.624Z,18.3
2018-04-10T05:51:06.585Z,18.3
2018-04-10T05:52:06.680Z,18.29
2018-04-10T05:53:06.845Z,18.29
2018-04-10T05:54:06.601Z,18.28
2018-04-10T05:55:06.679Z,18.29
2018-04-10T05:56:06.686Z,18.3
2018-04-10T05:57:06.697Z,18.28
2018-04-10T05:58:06.720Z,18.28
2018-04-10T05:59:07.163Z,18.27
2018-04-10T06:00:09.462Z,18.28
2018-04-10T06:01:06.688Z,18.26
2018-04-10T06:02:09.347Z,18.28
2018-04-10T06:03:09.112Z,18.27
2018-04-10T06:04:06.664Z,18.28
2018-04-10T06:05:07.139Z,18.28
2018-04-10T06:06:09.142Z,18.26
2018-04-10T06:07:06.697Z,18.28
2018-04-10T06:08:06.679Z,18.26
2018-04-10T06:09:09.082Z,18.28
2018-04-10T06:10:06.702Z,18.28
2018-04-10T06:11:06.664Z,18.27
2018-04-10T06:12:09.093Z,18.27
2018-04-10T06:13:06.594Z,18.27
2018-04-10T06:14:06.806Z,18.25
2018-04-10T06:15:06.640Z,18.26
2018-04-10T06:16:06.598Z,18.26
2018-04-10T06:17:06.607Z,18.27
2018-04-10T06:18:06.614Z,18.26
2018-04-10T06:19:06.604Z,18.26
2018-04-10T06:20:06.588Z,18.25
2018-04-10T06:21:06.636Z,18.24
2018-04-10T06:22:06.605Z,18.25
2018-04-10T06:23:06.617Z,18.24
2018-04-10T06:24:06.670Z,18.23
2018-04-10T06:25:06.591Z,18.23
2018-04-10T06:26:06.574Z,18.23
2018-04-10T06:27:06.626Z,18.22
2018-04-10T06:28:06.672Z,18.23
2018-04-10T06:29:06.695Z,18.23
2018-04-10T06:30:06.609Z,18.23
2018-04-10T06:31:06.561Z,18.21
2018-04-10T06:32:06.599Z,18.22
2018-04-10T06:33:06.604Z,18.22
2018-04-10T06:34:06.631Z,18.24
2018-04-10T06:35:06.598Z,18.22
2018-04-10T06:36:06.647Z,18.21
2018-04-10T06:37:06.841Z,18.2
2018-04-10T06:38:06.594Z,18.22
2018-04-10T06:39:06.611Z,18.2
2018-04-10T06:40:06.577Z,18.21
2018-04-10T06:41:06.689Z,18.21
2018-04-10T06:42:06.629Z,18.22
2018-04-10T06:43:06.713Z,18.26
2018-04-10T06:44:06.595Z,18.26
2018-04-10T06:45:06.876Z,18.27
2018-04-10T06:46:06.651Z,18.26
2018-04-10T06:47:06.611Z,18.26
2018-04-10T06:48:06.638Z,18.29
2018-04-10T06:49:06.616Z,18.27
2018-04-10T06:50:06.715Z,18.29
2018-04-10T06:51:06.597Z,18.26
2018-04-10T06:52:06.587Z,18.32
2018-04-10T06:53:06.614Z,18.3
2018-04-10T06:54:06.647Z,18.32
2018-04-10T06:55:06.640Z,18.3
2018-04-10T06:56:06.586Z,18.3
2018-04-10T06:57:06.595Z,18.33
2018-04-10T06:58:06.650Z,18.32
2018-04-10T06:59:06.650Z,18.33
2018-04-10T07:00:06.650Z,18.36
2018-04-10T07:01:06.655Z,18.34
2018-04-10T07:02:06.610Z,18.34
2018-04-10T07:03:06.582Z,18.34
2018-04-10T07:04:06.825Z,18.35
2018-04-10T07:05:06.584Z,18.35
2018-04-10T07:06:06.602Z,18.35
2018-04-10T07:07:06.631Z,18.35
2018-04-10T07:08:06.612Z,18.37
2018-04-10T07:09:06.601Z,18.37
2018-04-10T07:10:06.590Z,18.37
2018-04-10T07:11:06.574Z,18.37
2018-04-10T07:12:06.733Z,18.37
2018-04-10T07:13:06.719Z,18.39
2018-04-10T07:14:06.630Z,18.39
2018-04-10T07:15:06.572Z,18.4
2018-04-10T07:16:06.605Z,18.4
2018-04-10T07:17:06.572Z,18.38
2018-04-10T07:18:06.605Z,18.39
2018-04-10T07:19:06.614Z,18.39
2018-04-10T07:20:06.641Z,18.39
2018-04-10T07:21:06.569Z,18.4
2018-04-10T07:22:06.576Z,18.41
2018-04-10T07:23:06.574Z,18.41
2018-04-10T07:24:06.836Z,18.41
2018-04-10T07:25:06.568Z,18.41
2018-04-10T07:26:06.976Z,18.41
2018-04-10T07:27:06.596Z,18.42
2018-04-10T07:28:06.834Z,18.42
2018-04-10T07:29:06.825Z,18.41
2018-04-10T07:30:06.594Z,18.43
2018-04-10T07:31:06.589Z,18.43
2018-04-10T07:32:06.817Z,18.43
2018-04-10T07:33:06.591Z,18.39
2018-04-10T07:34:06.859Z,18.38
2018-04-10T07:35:06.855Z,18.41
2018-04-10T07:36:06.676Z,18.4
2018-04-10T07:37:06.604Z,18.4
2018-04-10T07:38:06.558Z,18.41
2018-04-10T07:39:06.597Z,18.41
2018-04-10T07:40:06.646Z,18.4
2018-04-10T07:41:06.608Z,18.39
2018-04-10T07:42:06.579Z,18.4
2018-04-10T07:43:06.624Z,18.42
2018-04-10T07:44:06.628Z,18.39
2018-04-10T07:45:06.677Z,18.4
2018-04-10T07:46:06.779Z,18.4
2018-04-10T07:47:06.630Z,18.41
2018-04-10T07:48:06.924Z,18.41
2018-04-10T07:49:06.612Z,18.41
2018-04-10T07:50:06.563Z,18.42
2018-04-10T07:51:06.633Z,18.41
2018-04-10T07:52:06.547Z,18.41
2018-04-10T07:53:06.545Z,18.42
2018-04-10T07:54:06.578Z,18.42
2018-04-10T07:55:06.525Z,18.43
2018-04-10T07:56:06.637Z,18.42
2018-04-10T07:57:06.607Z,18.41
2018-04-10T07:58:06.639Z,18.41
2018-04-10T07:59:06.560Z,18.44
2018-04-10T08:00:06.641Z,18.42
2018-04-10T08:01:06.613Z,18.41
2018-04-10T08:02:06.540Z,18.39
2018-04-10T08:03:06.601Z,18.41
2018-04-10T08:04:06.579Z,18.39
2018-04-10T08:05:06.704Z,18.4
2018-04-10T08:06:06.581Z,18.4
2018-04-10T08:07:06.561Z,18.41
2018-04-10T08:08:06.562Z,18.39
2018-04-10T08:09:06.573Z,18.37
2018-04-10T08:10:06.555Z,18.38
2018-04-10T08:11:06.605Z,18.38
2018-04-10T08:12:06.581Z,18.38
2018-04-10T08:13:06.580Z,18.39
2018-04-10T08:14:06.571Z,18.37
2018-04-10T08:15:06.555Z,18.35
2018-04-10T08:16:06.630Z,18.37
2018-04-10T08:17:06.556Z,18.35
2018-04-10T08:18:06.565Z,18.35
2018-04-10T08:19:06.585Z,18.36
2018-04-10T08:20:06.554Z,18.36
2018-04-10T08:21:06.698Z,18.36
2018-04-10T08:22:06.572Z,18.37
2018-04-10T08:23:06.537Z,18.34
2018-04-10T08:24:06.653Z,18.33
2018-04-10T08:25:06.540Z,18.37
2018-04-10T08:26:06.582Z,18.36
2018-04-10T08:27:06.567Z,18.35
2018-04-10T08:28:06.581Z,18.36
2018-04-10T08:29:06.537Z,18.35
2018-04-10T08:30:06.564Z,18.35
2018-04-10T08:31:06.576Z,18.37
2018-04-10T08:32:06.556Z,18.37
2018-04-10T08:33:06.600Z,18.38
2018-04-10T08:34:06.530Z,18.37
2018-04-10T08:35:06.635Z,18.38
2018-04-10T08:36:06.568Z,18.37
2018-04-10T08:37:06.540Z,18.39
2018-04-10T08:38:06.545Z,18.39
2018-04-10T08:39:06.702Z,18.38
2018-04-10T08:40:06.533Z,18.4
2018-04-10T08:41:06.555Z,18.38
2018-04-10T08:42:06.640Z,18.39
2018-04-10T08:43:06.533Z,18.4
2018-04-10T08:44:06.582Z,18.39
2018-04-10T08:45:06.855Z,18.39
2018-04-10T08:46:06.589Z,18.4
2018-04-10T08:47:06.581Z,18.4
2018-04-10T08:48:06.516Z,18.38
2018-04-10T08:49:06.598Z,18.39
2018-04-10T08:50:06.591Z,18.4
2018-04-10T08:51:06.607Z,18.38
2018-04-10T08:52:06.582Z,18.4
2018-04-10T08:53:06.578Z,18.41
2018-04-10T08:54:06.810Z,18.41
2018-04-10T08:55:06.560Z,18.41
2018-04-10T08:56:06.656Z,18.41
2018-04-10T08:57:06.565Z,18.39
2018-04-10T08:58:07.030Z,18.4
2018-04-10T08:59:06.700Z,18.42
2018-04-10T09:00:06.576Z,18.4
2018-04-10T09:01:06.527Z,18.41
2018-04-10T09:02:06.632Z,18.41
2018-04-10T09:03:06.575Z,18.41
2018-04-10T09:04:06.562Z,18.41
2018-04-10T09:05:06.572Z,18.41
2018-04-10T09:06:06.646Z,18.42
2018-04-10T09:07:06.576Z,18.41
2018-04-10T09:08:06.562Z,18.4
2018-04-10T09:09:06.662Z,18.4
2018-04-10T09:10:06.555Z,18.42
2018-04-10T09:11:06.577Z,18.41
2018-04-10T09:12:06.576Z,18.42
2018-04-10T09:13:06.663Z,18.44
2018-04-10T09:14:06.662Z,18.42
2018-04-10T09:15:06.522Z,18.43
2018-04-10T09:16:06.563Z,18.46
2018-04-10T09:17:06.567Z,18.43
2018-04-10T09:18:06.562Z,18.44
2018-04-10T09:19:06.602Z,18.47
2018-04-10T09:20:06.529Z,18.46
2018-04-10T09:21:06.519Z,18.46
2018-04-10T09:22:06.646Z,18.47
2018-04-10T09:23:06.544Z,18.44
2018-04-10T09:24:06.560Z,18.4
2018-04-10T09:25:06.598Z,18.43
2018-04-10T09:26:06.541Z,18.43
2018-04-10T09:27:06.563Z,18.41
2018-04-10T09:28:06.645Z,18.41
2018-04-10T09:29:06.716Z,18.4
2018-04-10T09:30:06.529Z,18.4
2018-04-10T09:31:06.553Z,18.38
2018-04-10T09:32:06.588Z,18.4
2018-04-10T09:33:06.679Z,18.41
2018-04-10T09:34:06.557Z,18.37
2018-04-10T09:35:06.524Z,18.36
2018-04-10T09:36:06.524Z,18.36
2018-04-10T09:37:06.673Z,18.37
2018-04-10T09:38:06.556Z,18.36
2018-04-10T09:39:06.543Z,18.37
2018-04-10T09:40:06.521Z,18.36
2018-04-10T09:41:06.520Z,18.34
2018-04-10T09:42:06.527Z,18.37
2018-04-10T09:43:06.581Z,18.35
2018-04-10T09:44:06.569Z,18.34
2018-04-10T09:45:06.537Z,18.36
2018-04-10T09:46:06.521Z,18.36
2018-04-10T09:47:06.542Z,18.35
2018-04-10T09:48:06.524Z,18.35
2018-04-10T09:49:06.529Z,18.34
2018-04-10T09:50:06.536Z,18.33
2018-04-10T09:51:06.587Z,18.34
2018-04-10T09:52:06.542Z,18.34
2018-04-10T09:53:06.597Z,18.33
2018-04-10T09:54:06.533Z,18.3
2018-04-10T09:55:06.582Z,18.28
2018-04-10T09:56:06.568Z,18.33
2018-04-10T09:57:06.607Z,18.29
2018-04-10T09:58:06.565Z,18.29
2018-04-10T09:59:06.647Z,18.28
2018-04-10T10:00:06.513Z,18.29
2018-04-10T10:01:06.602Z,18.29
2018-04-10T10:02:06.569Z,18.29
2018-04-10T10:03:06.563Z,18.28
2018-04-10T10:04:06.506Z,18.27
2018-04-10T10:05:06.559Z,18.28
2018-04-10T10:06:06.536Z,18.27
2018-04-10T10:07:06.497Z,18.26
2018-04-10T10:08:06.603Z,18.26
2018-04-10T10:09:06.573Z,18.26
2018-04-10T10:10:06.526Z,18.26
2018-04-10T10:11:06.646Z,18.25
2018-04-10T10:12:06.566Z,18.25
2018-04-10T10:13:06.566Z,18.24
2018-04-10T10:14:06.547Z,18.24
2018-04-10T10:15:06.524Z,18.22
2018-04-10T10:16:06.545Z,18.24
2018-04-10T10:17:06.593Z,18.27
2018-04-10T10:18:06.567Z,18.27
2018-04-10T10:19:06.547Z,18.27
2018-04-10T10:20:06.559Z,18.28
2018-04-10T10:21:06.521Z,18.29
2018-04-10T10:22:06.533Z,18.29
2018-04-10T10:23:06.554Z,18.3
2018-04-10T10:24:06.509Z,18.32
2018-04-10T10:25:06.552Z,18.32
2018-04-10T10:26:06.536Z,18.3
2018-04-10T10:27:06.580Z,18.3
2018-04-10T10:28:06.542Z,18.33
2018-04-10T10:29:06.524Z,18.33
2018-04-10T10:30:06.541Z,18.32
2018-04-10T10:31:06.574Z,18.35
2018-04-10T10:32:06.712Z,18.33
2018-04-10T10:33:06.528Z,18.33
2018-04-10T10:34:06.537Z,18.35
2018-04-10T10:35:06.496Z,18.34
2018-04-10T10:36:06.559Z,18.36
2018-04-10T10:37:06.489Z,18.35
2018-04-10T10:38:06.648Z,18.36
2018-04-10T10:39:06.685Z,18.36
2018-04-10T10:40:06.615Z,18.36
2018-04-10T10:41:06.530Z,18.35
2018-04-10T10:42:06.551Z,18.37
2018-04-10T10:43:06.739Z,18.36
2018-04-10T10:44:06.561Z,18.37
2018-04-10T10:45:06.547Z,18.37
2018-04-10T10:46:06.560Z,18.38
2018-04-10T10:47:06.713Z,18.37
2018-04-10T10:48:06.612Z,18.37
2018-04-10T10:49:06.511Z,18.37
2018-04-10T10:50:06.517Z,18.39
2018-04-10T10:51:06.517Z,18.37
2018-04-10T10:52:06.503Z,18.4
2018-04-10T10:53:06.525Z,18.39
2018-04-10T10:54:06.527Z,18.39
2018-04-10T10:55:06.611Z,18.41
2018-04-10T10:56:06.508Z,18.4
2018-04-10T10:57:06.483Z,18.43
2018-04-10T10:58:06.816Z,18.41
2018-04-10T10:59:06.524Z,18.44
2018-04-10T11:00:06.493Z,18.42
2018-04-10T11:01:06.816Z,18.41
2018-04-10T11:02:06.529Z,18.41
2018-04-10T11:03:06.693Z,18.4
2018-04-10T11:04:06.548Z,18.41
2018-04-10T11:05:06.542Z,18.41
2018-04-10T11:06:06.505Z,18.41
2018-04-10T11:07:06.526Z,18.39
2018-04-10T11:08:06.568Z,18.36
2018-04-10T11:09:06.518Z,18.37
2018-04-10T11:10:06.674Z,18.39
2018-04-10T11:11:06.612Z,18.38
2018-04-10T11:12:06.570Z,18.38
2018-04-10T11:13:06.645Z,18.37
2018-04-10T11:14:06.612Z,18.38
2018-04-10T11:15:06.605Z,18.38
2018-04-10T11:16:06.608Z,18.37
2018-04-10T11:17:06.502Z,18.36
2018-04-10T11:18:06.554Z,18.36
2018-04-10T11:19:06.503Z,18.36
2018-04-10T11:20:06.500Z,18.37
2018-04-10T11:21:06.512Z,18.36
2018-04-10T11:22:06.515Z,18.37
2018-04-10T11:23:06.514Z,18.35
2018-04-10T11:24:06.482Z,18.34
2018-04-10T11:25:06.506Z,18.35
2018-04-10T11:26:06.506Z,18.36
2018-04-10T11:27:06.509Z,18.35
2018-04-10T11:28:06.488Z,18.34
2018-04-10T11:29:06.467Z,18.33
2018-04-10T11:30:06.502Z,18.33
2018-04-10T11:31:06.479Z,18.32
2018-04-10T11:32:06.524Z,18.29
2018-04-10T11:33:06.535Z,18.33
2018-04-10T11:34:06.492Z,18.29
2018-04-10T11:35:06.534Z,18.28
2018-04-10T11:36:06.520Z,18.3
2018-04-10T11:37:06.463Z,18.3
2018-04-10T11:38:06.701Z,18.28
2018-04-10T11:39:06.690Z,18.28
2018-04-10T11:40:06.495Z,18.28
2018-04-10T11:41:06.473Z,18.29
2018-04-10T11:42:06.487Z,18.28
2018-04-10T11:43:06.784Z,18.3
2018-04-10T11:44:06.498Z,18.3
2018-04-10T11:45:06.540Z,18.3
2018-04-10T11:46:06.488Z,18.34
2018-04-10T11:47:06.524Z,18.34
2018-04-10T11:48:06.514Z,18.3
2018-04-10T11:49:06.507Z,18.33
2018-04-10T11:50:06.463Z,18.33
2018-04-10T11:51:06.491Z,18.33
2018-04-10T11:52:06.540Z,18.37
2018-04-10T11:53:06.518Z,18.35
2018-04-10T11:54:06.541Z,18.37
2018-04-10T11:55:06.491Z,18.42
2018-04-10T11:56:06.484Z,18.38
2018-04-10T11:57:06.522Z,18.39
2018-04-10T11:58:06.465Z,18.39
2018-04-10T11:59:06.504Z,18.38
2018-04-10T12:00:06.487Z,18.36
2018-04-10T12:01:06.566Z,18.38
2018-04-10T12:02:06.550Z,18.37
2018-04-10T12:03:06.516Z,18.39
2018-04-10T12:04:06.545Z,18.38
2018-04-10T12:05:06.515Z,18.37
2018-04-10T12:06:06.502Z,18.38
2018-04-10T12:07:06.505Z,18.39
2018-04-10T12:08:06.467Z,18.4
2018-04-10T12:09:06.476Z,18.41
2018-04-10T12:10:06.543Z,18.41
2018-04-10T12:11:06.483Z,18.41
2018-04-10T12:12:06.472Z,18.41
2018-04-10T12:13:06.488Z,18.41
2018-04-10T12:14:06.501Z,18.43
2018-04-10T12:15:06.668Z,18.41
2018-04-10T12:16:06.685Z,18.42
2018-04-10T12:17:06.481Z,18.42
2018-04-10T12:18:06.465Z,18.43
2018-04-10T12:19:06.493Z,18.47
2018-04-10T12:20:06.518Z,18.44
2018-04-10T12:21:06.525Z,18.42
2018-04-10T12:22:06.475Z,18.44
2018-04-10T12:23:06.498Z,18.44
2018-04-10T12:24:06.453Z,18.44
2018-04-10T12:25:06.502Z,18.43
2018-04-10T12:26:06.512Z,18.42
2018-04-10T12:27:06.500Z,18.41
2018-04-10T12:28:06.467Z,18.41
2018-04-10T12:29:06.575Z,18.41
2018-04-10T12:30:06.529Z,18.41
2018-04-10T12:31:06.473Z,18.4
2018-04-10T12:32:06.511Z,18.38
2018-04-10T12:33:06.462Z,18.41
2018-04-10T12:34:06.489Z,18.39
2018-04-10T12:35:06.485Z,18.38
2018-04-10T12:36:06.434Z,18.38
2018-04-10T12:37:06.485Z,18.38
2018-04-10T12:38:06.456Z,18.37
2018-04-10T12:39:06.485Z,18.37
2018-04-10T12:40:06.488Z,18.36
2018-04-10T12:41:06.468Z,18.39
2018-04-10T12:42:06.474Z,18.37
2018-04-10T12:43:06.794Z,18.36
2018-04-10T12:44:06.483Z,18.37
2018-04-10T12:45:06.597Z,18.36
2018-04-10T12:46:06.486Z,18.35
2018-04-10T12:47:06.588Z,18.35
2018-04-10T12:48:06.492Z,18.36
2018-04-10T12:49:06.496Z,18.32
2018-04-10T12:50:06.535Z,18.33
2018-04-10T12:51:06.501Z,18.35
2018-04-10T12:52:06.482Z,18.33
2018-04-10T12:53:06.483Z,18.32
2018-04-10T12:54:06.531Z,18.33
2018-04-10T12:55:06.537Z,18.33